sensor_id;sensor_type;location;lat;lon;timestamp;P1;durP1;ratioP1;P2;durP2;ratioP2
2173;SDS011;1093;51.424;11.764;2023-11-21T00:01:37;3.70;;;2.30;;
2173;SDS011;1093;51.424;11.764;2023-11-21T00:04:04;5.17;;;2.70;;
2173;SDS011;1093;51.424;11.764;2023-11-21T00:06:33;4.00;;;3.03;;
2173;SDS011;1093;51.424;11.764;2023-11-21T00:08:59;4.30;;;3.20;;
2173;SDS011;1093;51.424;11.764;2023-11-21T00:11:27;3.00;;;2.60;;
2173;SDS011;1093;51.424;11.764;2023-11-21T00:13:54;5.67;;;3.20;;
2173;SDS011;1093;51.424;11.764;2023-11-21T00:16:30;5.63;;;2.80;;
2173;SDS011;1093;51.424;11.764;2023-11-21T00:18:58;3.17;;;2.57;;
2173;SDS011;1093;51.424;11.764;2023-11-21T00:21:26;3.27;;;2.90;;
2173;SDS011;1093;51.424;11.764;2023-11-21T00:23:53;4.40;;;2.80;;
2173;SDS011;1093;51.424;11.764;2023-11-21T00:26:22;2.73;;;2.30;;
2173;SDS011;1093;51.424;11.764;2023-11-21T00:28:50;2.83;;;2.53;;
2173;SDS011;1093;51.424;11.764;2023-11-21T00:31:17;3.37;;;3.07;;
2173;SDS011;1093;51.424;11.764;2023-11-21T00:33:44;5.73;;;2.53;;
2173;SDS011;1093;51.424;11.764;2023-11-21T00:36:14;2.77;;;2.43;;
2173;SDS011;1093;51.424;11.764;2023-11-21T00:38:41;7.40;;;3.63;;
2173;SDS011;1093;51.424;11.764;2023-11-21T00:41:08;5.30;;;3.50;;
2173;SDS011;1093;51.424;11.764;2023-11-21T00:43:37;4.50;;;2.90;;
2173;SDS011;1093;51.424;11.764;2023-11-21T00:46:04;3.37;;;2.97;;
2173;SDS011;1093;51.424;11.764;2023-11-21T00:48:32;4.17;;;3.20;;
2173;SDS011;1093;51.424;11.764;2023-11-21T00:51:01;3.97;;;2.77;;
2173;SDS011;1093;51.424;11.764;2023-11-21T00:53:29;7.83;;;3.00;;
2173;SDS011;1093;51.424;11.764;2023-11-21T00:55:59;6.03;;;3.50;;
2173;SDS011;1093;51.424;11.764;2023-11-21T00:58:27;5.43;;;3.57;;
2173;SDS011;1093;51.424;11.764;2023-11-21T01:00:55;3.50;;;2.83;;
2173;SDS011;1093;51.424;11.764;2023-11-21T01:03:24;4.53;;;2.80;;
2173;SDS011;1093;51.424;11.764;2023-11-21T01:05:56;4.80;;;3.43;;
2173;SDS011;1093;51.424;11.764;2023-11-21T01:08:24;5.93;;;2.83;;
2173;SDS011;1093;51.424;11.764;2023-11-21T01:10:53;3.57;;;3.10;;
2173;SDS011;1093;51.424;11.764;2023-11-21T01:13:20;5.30;;;3.20;;
2173;SDS011;1093;51.424;11.764;2023-11-21T01:15:48;5.80;;;4.07;;
2173;SDS011;1093;51.424;11.764;2023-11-21T01:18:15;3.93;;;3.03;;
2173;SDS011;1093;51.424;11.764;2023-11-21T01:20:44;5.47;;;2.70;;
2173;SDS011;1093;51.424;11.764;2023-11-21T01:23:12;5.70;;;3.17;;
2173;SDS011;1093;51.424;11.764;2023-11-21T01:25:39;3.63;;;3.27;;
2173;SDS011;1093;51.424;11.764;2023-11-21T01:28:08;3.80;;;2.97;;
2173;SDS011;1093;51.424;11.764;2023-11-21T01:30:35;3.33;;;3.03;;
2173;SDS011;1093;51.424;11.764;2023-11-21T01:33:02;4.77;;;2.90;;
2173;SDS011;1093;51.424;11.764;2023-11-21T01:35:29;7.00;;;3.47;;
2173;SDS011;1093;51.424;11.764;2023-11-21T01:38:04;6.33;;;2.60;;
2173;SDS011;1093;51.424;11.764;2023-11-21T01:40:33;4.93;;;3.40;;
2173;SDS011;1093;51.424;11.764;2023-11-21T01:43:00;8.40;;;3.67;;
2173;SDS011;1093;51.424;11.764;2023-11-21T01:45:31;4.57;;;3.00;;
2173;SDS011;1093;51.424;11.764;2023-11-21T01:47:58;5.00;;;4.03;;
2173;SDS011;1093;51.424;11.764;2023-11-21T01:50:28;4.93;;;3.23;;
2173;SDS011;1093;51.424;11.764;2023-11-21T01:52:56;4.07;;;2.77;;
2173;SDS011;1093;51.424;11.764;2023-11-21T01:55:23;4.93;;;3.60;;
2173;SDS011;1093;51.424;11.764;2023-11-21T01:57:55;12.23;;;3.70;;
2173;SDS011;1093;51.424;11.764;2023-11-21T02:00:26;5.27;;;2.87;;
2173;SDS011;1093;51.424;11.764;2023-11-21T02:02:59;4.27;;;3.33;;
2173;SDS011;1093;51.424;11.764;2023-11-21T02:05:27;5.20;;;3.97;;
2173;SDS011;1093;51.424;11.764;2023-11-21T02:07:55;4.47;;;2.97;;
2173;SDS011;1093;51.424;11.764;2023-11-21T02:10:22;8.03;;;4.20;;
2173;SDS011;1093;51.424;11.764;2023-11-21T02:12:49;6.20;;;4.30;;
2173;SDS011;1093;51.424;11.764;2023-11-21T02:15:16;4.90;;;3.30;;
2173;SDS011;1093;51.424;11.764;2023-11-21T02:17:46;8.90;;;4.70;;
2173;SDS011;1093;51.424;11.764;2023-11-21T02:20:19;6.70;;;4.27;;
2173;SDS011;1093;51.424;11.764;2023-11-21T02:22:49;8.17;;;4.00;;
2173;SDS011;1093;51.424;11.764;2023-11-21T02:25:22;5.50;;;4.20;;
2173;SDS011;1093;51.424;11.764;2023-11-21T02:27:50;6.73;;;4.13;;
2173;SDS011;1093;51.424;11.764;2023-11-21T02:30:19;8.23;;;4.73;;
2173;SDS011;1093;51.424;11.764;2023-11-21T02:32:46;18.13;;;5.00;;
2173;SDS011;1093;51.424;11.764;2023-11-21T02:35:18;5.40;;;3.90;;
2173;SDS011;1093;51.424;11.764;2023-11-21T02:37:46;15.40;;;4.67;;
2173;SDS011;1093;51.424;11.764;2023-11-21T02:40:15;6.30;;;4.27;;
2173;SDS011;1093;51.424;11.764;2023-11-21T02:42:42;6.37;;;4.20;;
2173;SDS011;1093;51.424;11.764;2023-11-21T02:45:09;6.00;;;4.20;;
2173;SDS011;1093;51.424;11.764;2023-11-21T02:47:41;7.30;;;4.23;;
2173;SDS011;1093;51.424;11.764;2023-11-21T02:50:10;9.23;;;4.40;;
2173;SDS011;1093;51.424;11.764;2023-11-21T02:52:46;4.33;;;3.97;;
2173;SDS011;1093;51.424;11.764;2023-11-21T02:55:12;10.63;;;5.43;;
2173;SDS011;1093;51.424;11.764;2023-11-21T02:57:41;19.03;;;5.23;;
2173;SDS011;1093;51.424;11.764;2023-11-21T03:00:08;10.93;;;5.47;;
2173;SDS011;1093;51.424;11.764;2023-11-21T03:02:43;6.03;;;4.33;;
2173;SDS011;1093;51.424;11.764;2023-11-21T03:05:13;9.27;;;4.47;;
2173;SDS011;1093;51.424;11.764;2023-11-21T03:07:43;7.83;;;4.57;;
2173;SDS011;1093;51.424;11.764;2023-11-21T03:10:10;8.77;;;5.40;;
2173;SDS011;1093;51.424;11.764;2023-11-21T03:12:40;8.97;;;5.47;;
2173;SDS011;1093;51.424;11.764;2023-11-21T03:15:07;9.43;;;4.83;;
2173;SDS011;1093;51.424;11.764;2023-11-21T03:17:35;8.93;;;5.80;;
2173;SDS011;1093;51.424;11.764;2023-11-21T03:20:02;11.73;;;4.93;;
2173;SDS011;1093;51.424;11.764;2023-11-21T03:22:30;12.97;;;5.80;;
2173;SDS011;1093;51.424;11.764;2023-11-21T03:24:57;7.70;;;5.70;;
2173;SDS011;1093;51.424;11.764;2023-11-21T03:27:24;7.20;;;5.50;;
2173;SDS011;1093;51.424;11.764;2023-11-21T03:29:53;10.13;;;5.90;;
2173;SDS011;1093;51.424;11.764;2023-11-21T03:32:20;11.10;;;6.50;;
2173;SDS011;1093;51.424;11.764;2023-11-21T03:34:55;10.70;;;5.93;;
2173;SDS011;1093;51.424;11.764;2023-11-21T03:37:23;9.40;;;5.63;;
2173;SDS011;1093;51.424;11.764;2023-11-21T03:39:52;10.33;;;5.37;;
2173;SDS011;1093;51.424;11.764;2023-11-21T03:42:20;11.80;;;6.70;;
2173;SDS011;1093;51.424;11.764;2023-11-21T03:44:47;9.80;;;6.37;;
2173;SDS011;1093;51.424;11.764;2023-11-21T03:47:15;10.67;;;6.27;;
2173;SDS011;1093;51.424;11.764;2023-11-21T03:49:51;10.70;;;6.77;;
2173;SDS011;1093;51.424;11.764;2023-11-21T03:52:18;10.43;;;6.67;;
2173;SDS011;1093;51.424;11.764;2023-11-21T03:54:45;12.10;;;8.00;;
2173;SDS011;1093;51.424;11.764;2023-11-21T03:57:12;11.67;;;6.47;;
2173;SDS011;1093;51.424;11.764;2023-11-21T03:59:41;10.33;;;6.90;;
2173;SDS011;1093;51.424;11.764;2023-11-21T04:02:09;14.90;;;7.67;;
2173;SDS011;1093;51.424;11.764;2023-11-21T04:04:39;9.13;;;6.20;;
2173;SDS011;1093;51.424;11.764;2023-11-21T04:07:06;9.33;;;6.47;;
2173;SDS011;1093;51.424;11.764;2023-11-21T04:09:33;9.97;;;7.43;;
2173;SDS011;1093;51.424;11.764;2023-11-21T04:12:01;13.30;;;8.40;;
2173;SDS011;1093;51.424;11.764;2023-11-21T04:14:28;16.00;;;8.50;;
2173;SDS011;1093;51.424;11.764;2023-11-21T04:16:56;10.43;;;7.20;;
2173;SDS011;1093;51.424;11.764;2023-11-21T04:19:22;13.63;;;7.90;;
2173;SDS011;1093;51.424;11.764;2023-11-21T04:21:53;20.07;;;8.30;;
2173;SDS011;1093;51.424;11.764;2023-11-21T04:24:20;14.63;;;8.83;;
2173;SDS011;1093;51.424;11.764;2023-11-21T04:26:47;15.07;;;7.53;;
2173;SDS011;1093;51.424;11.764;2023-11-21T04:29:14;19.50;;;9.70;;
2173;SDS011;1093;51.424;11.764;2023-11-21T04:31:41;12.73;;;9.10;;
2173;SDS011;1093;51.424;11.764;2023-11-21T04:34:08;19.17;;;9.00;;
2173;SDS011;1093;51.424;11.764;2023-11-21T04:36:36;18.47;;;9.70;;
2173;SDS011;1093;51.424;11.764;2023-11-21T04:39:07;14.23;;;10.53;;
2173;SDS011;1093;51.424;11.764;2023-11-21T04:41:34;17.17;;;8.97;;
2173;SDS011;1093;51.424;11.764;2023-11-21T04:44:01;15.83;;;9.37;;
2173;SDS011;1093;51.424;11.764;2023-11-21T04:46:30;21.93;;;11.23;;
2173;SDS011;1093;51.424;11.764;2023-11-21T04:48:58;17.70;;;9.13;;
2173;SDS011;1093;51.424;11.764;2023-11-21T04:51:25;16.37;;;9.20;;
2173;SDS011;1093;51.424;11.764;2023-11-21T04:53:54;17.03;;;10.57;;
2173;SDS011;1093;51.424;11.764;2023-11-21T04:56:22;16.83;;;10.77;;
2173;SDS011;1093;51.424;11.764;2023-11-21T04:58:49;17.67;;;10.67;;
2173;SDS011;1093;51.424;11.764;2023-11-21T05:01:17;18.53;;;11.23;;
2173;SDS011;1093;51.424;11.764;2023-11-21T05:03:44;17.43;;;9.37;;
2173;SDS011;1093;51.424;11.764;2023-11-21T05:06:12;16.63;;;10.10;;
2173;SDS011;1093;51.424;11.764;2023-11-21T05:08:40;15.70;;;9.43;;
2173;SDS011;1093;51.424;11.764;2023-11-21T05:11:07;26.27;;;12.83;;
2173;SDS011;1093;51.424;11.764;2023-11-21T05:13:39;18.03;;;11.30;;
2173;SDS011;1093;51.424;11.764;2023-11-21T05:16:06;17.03;;;9.70;;
2173;SDS011;1093;51.424;11.764;2023-11-21T05:18:34;20.73;;;10.77;;
2173;SDS011;1093;51.424;11.764;2023-11-21T05:21:00;18.43;;;10.20;;
2173;SDS011;1093;51.424;11.764;2023-11-21T05:23:28;18.50;;;9.27;;
2173;SDS011;1093;51.424;11.764;2023-11-21T05:25:56;18.37;;;12.03;;
2173;SDS011;1093;51.424;11.764;2023-11-21T05:28:23;18.60;;;10.40;;
2173;SDS011;1093;51.424;11.764;2023-11-21T05:30:52;23.07;;;10.70;;
2173;SDS011;1093;51.424;11.764;2023-11-21T05:33:20;20.67;;;11.90;;
2173;SDS011;1093;51.424;11.764;2023-11-21T05:35:50;16.13;;;9.27;;
2173;SDS011;1093;51.424;11.764;2023-11-21T05:38:19;19.47;;;10.20;;
2173;SDS011;1093;51.424;11.764;2023-11-21T05:40:47;17.57;;;9.80;;
2173;SDS011;1093;51.424;11.764;2023-11-21T05:43:15;24.93;;;12.80;;
2173;SDS011;1093;51.424;11.764;2023-11-21T05:45:44;14.77;;;10.70;;
2173;SDS011;1093;51.424;11.764;2023-11-21T05:48:13;20.67;;;11.67;;
2173;SDS011;1093;51.424;11.764;2023-11-21T05:50:41;16.43;;;11.03;;
2173;SDS011;1093;51.424;11.764;2023-11-21T05:53:08;20.97;;;10.83;;
2173;SDS011;1093;51.424;11.764;2023-11-21T05:55:36;19.33;;;10.73;;
2173;SDS011;1093;51.424;11.764;2023-11-21T05:58:05;22.13;;;11.83;;
2173;SDS011;1093;51.424;11.764;2023-11-21T06:00:32;20.23;;;10.87;;
2173;SDS011;1093;51.424;11.764;2023-11-21T06:02:59;31.20;;;13.20;;
2173;SDS011;1093;51.424;11.764;2023-11-21T06:05:27;19.20;;;11.43;;
2173;SDS011;1093;51.424;11.764;2023-11-21T06:07:57;21.80;;;11.80;;
2173;SDS011;1093;51.424;11.764;2023-11-21T06:10:25;25.90;;;11.50;;
2173;SDS011;1093;51.424;11.764;2023-11-21T06:12:53;24.27;;;12.00;;
2173;SDS011;1093;51.424;11.764;2023-11-21T06:15:23;18.33;;;11.03;;
2173;SDS011;1093;51.424;11.764;2023-11-21T06:17:52;19.47;;;11.47;;
2173;SDS011;1093;51.424;11.764;2023-11-21T06:20:36;18.33;;;11.83;;
2173;SDS011;1093;51.424;11.764;2023-11-21T06:23:03;23.93;;;13.30;;
2173;SDS011;1093;51.424;11.764;2023-11-21T06:25:39;21.10;;;11.57;;
2173;SDS011;1093;51.424;11.764;2023-11-21T06:28:07;20.73;;;11.70;;
2173;SDS011;1093;51.424;11.764;2023-11-21T06:30:34;21.90;;;12.97;;
2173;SDS011;1093;51.424;11.764;2023-11-21T06:33:01;24.87;;;11.27;;
2173;SDS011;1093;51.424;11.764;2023-11-21T06:35:28;37.37;;;12.77;;
2173;SDS011;1093;51.424;11.764;2023-11-21T06:38:01;20.53;;;11.93;;
2173;SDS011;1093;51.424;11.764;2023-11-21T06:40:34;23.67;;;11.43;;
2173;SDS011;1093;51.424;11.764;2023-11-21T06:43:06;24.17;;;12.50;;
2173;SDS011;1093;51.424;11.764;2023-11-21T06:45:33;29.40;;;14.00;;
2173;SDS011;1093;51.424;11.764;2023-11-21T06:48:01;21.07;;;11.40;;
2173;SDS011;1093;51.424;11.764;2023-11-21T06:50:30;25.07;;;12.70;;
2173;SDS011;1093;51.424;11.764;2023-11-21T06:52:57;25.93;;;13.13;;
2173;SDS011;1093;51.424;11.764;2023-11-21T06:55:25;22.97;;;12.50;;
2173;SDS011;1093;51.424;11.764;2023-11-21T06:57:53;33.43;;;14.70;;
2173;SDS011;1093;51.424;11.764;2023-11-21T07:00:20;26.27;;;12.70;;
2173;SDS011;1093;51.424;11.764;2023-11-21T07:02:50;31.80;;;14.10;;
2173;SDS011;1093;51.424;11.764;2023-11-21T07:05:16;25.53;;;13.37;;
2173;SDS011;1093;51.424;11.764;2023-11-21T07:07:46;28.23;;;13.57;;
2173;SDS011;1093;51.424;11.764;2023-11-21T07:10:13;29.40;;;14.47;;
2173;SDS011;1093;51.424;11.764;2023-11-21T07:12:42;21.80;;;12.47;;
2173;SDS011;1093;51.424;11.764;2023-11-21T07:15:13;25.20;;;14.60;;
2173;SDS011;1093;51.424;11.764;2023-11-21T07:17:42;25.73;;;14.30;;
2173;SDS011;1093;51.424;11.764;2023-11-21T07:20:10;28.27;;;15.03;;
2173;SDS011;1093;51.424;11.764;2023-11-21T07:22:38;21.77;;;12.10;;
2173;SDS011;1093;51.424;11.764;2023-11-21T07:25:07;28.97;;;16.33;;
2173;SDS011;1093;51.424;11.764;2023-11-21T07:27:37;24.90;;;13.57;;
2173;SDS011;1093;51.424;11.764;2023-11-21T07:30:07;33.27;;;15.70;;
2173;SDS011;1093;51.424;11.764;2023-11-21T07:32:46;23.47;;;14.90;;
2173;SDS011;1093;51.424;11.764;2023-11-21T07:35:16;26.70;;;15.97;;
2173;SDS011;1093;51.424;11.764;2023-11-21T07:37:53;32.10;;;15.97;;
2173;SDS011;1093;51.424;11.764;2023-11-21T07:40:24;31.90;;;16.63;;
2173;SDS011;1093;51.424;11.764;2023-11-21T07:42:55;28.40;;;16.10;;
2173;SDS011;1093;51.424;11.764;2023-11-21T07:45:25;33.17;;;15.63;;
2173;SDS011;1093;51.424;11.764;2023-11-21T07:47:54;33.47;;;14.50;;
2173;SDS011;1093;51.424;11.764;2023-11-21T07:50:21;33.70;;;14.97;;
2173;SDS011;1093;51.424;11.764;2023-11-21T07:52:49;28.90;;;16.80;;
2173;SDS011;1093;51.424;11.764;2023-11-21T07:55:16;33.80;;;15.77;;
2173;SDS011;1093;51.424;11.764;2023-11-21T07:57:43;34.93;;;15.63;;
2173;SDS011;1093;51.424;11.764;2023-11-21T08:00:13;41.83;;;18.07;;
2173;SDS011;1093;51.424;11.764;2023-11-21T08:02:45;33.10;;;16.10;;
2173;SDS011;1093;51.424;11.764;2023-11-21T08:05:13;27.90;;;15.40;;
2173;SDS011;1093;51.424;11.764;2023-11-21T08:07:41;48.97;;;17.60;;
2173;SDS011;1093;51.424;11.764;2023-11-21T08:10:08;45.93;;;20.50;;
2173;SDS011;1093;51.424;11.764;2023-11-21T08:12:36;40.97;;;17.53;;
2173;SDS011;1093;51.424;11.764;2023-11-21T08:15:08;28.87;;;16.23;;
2173;SDS011;1093;51.424;11.764;2023-11-21T08:17:35;37.47;;;17.37;;
2173;SDS011;1093;51.424;11.764;2023-11-21T08:20:06;37.27;;;17.70;;
2173;SDS011;1093;51.424;11.764;2023-11-21T08:22:35;38.80;;;15.60;;
2173;SDS011;1093;51.424;11.764;2023-11-21T08:25:03;45.37;;;18.40;;
2173;SDS011;1093;51.424;11.764;2023-11-21T08:27:33;49.83;;;22.30;;
2173;SDS011;1093;51.424;11.764;2023-11-21T08:30:00;45.50;;;21.03;;
2173;SDS011;1093;51.424;11.764;2023-11-21T08:32:29;27.83;;;14.70;;
2173;SDS011;1093;51.424;11.764;2023-11-21T08:34:57;18.33;;;9.33;;
2173;SDS011;1093;51.424;11.764;2023-11-21T08:40:49;19.77;;;10.07;;
2173;SDS011;1093;51.424;11.764;2023-11-21T08:43:16;23.83;;;11.73;;
2173;SDS011;1093;51.424;11.764;2023-11-21T08:45:45;17.77;;;10.73;;
2173;SDS011;1093;51.424;11.764;2023-11-21T08:48:13;19.70;;;10.67;;
2173;SDS011;1093;51.424;11.764;2023-11-21T08:50:40;20.30;;;11.50;;
2173;SDS011;1093;51.424;11.764;2023-11-21T08:53:07;18.33;;;10.27;;
2173;SDS011;1093;51.424;11.764;2023-11-21T08:55:36;20.73;;;11.03;;
2173;SDS011;1093;51.424;11.764;2023-11-21T08:58:06;20.13;;;10.23;;
2173;SDS011;1093;51.424;11.764;2023-11-21T09:00:33;18.63;;;10.40;;
2173;SDS011;1093;51.424;11.764;2023-11-21T09:03:01;27.60;;;11.57;;
2173;SDS011;1093;51.424;11.764;2023-11-21T09:05:33;19.80;;;11.03;;
2173;SDS011;1093;51.424;11.764;2023-11-21T09:08:00;23.60;;;10.50;;
2173;SDS011;1093;51.424;11.764;2023-11-21T09:10:27;22.23;;;10.53;;
2173;SDS011;1093;51.424;11.764;2023-11-21T09:12:55;27.43;;;11.83;;
2173;SDS011;1093;51.424;11.764;2023-11-21T09:15:24;26.27;;;13.27;;
2173;SDS011;1093;51.424;11.764;2023-11-21T09:17:51;19.57;;;10.00;;
2173;SDS011;1093;51.424;11.764;2023-11-21T09:20:18;24.30;;;11.40;;
2173;SDS011;1093;51.424;11.764;2023-11-21T09:22:47;20.07;;;10.30;;
2173;SDS011;1093;51.424;11.764;2023-11-21T09:25:15;24.43;;;12.20;;
2173;SDS011;1093;51.424;11.764;2023-11-21T09:27:42;19.03;;;11.20;;
2173;SDS011;1093;51.424;11.764;2023-11-21T09:30:11;25.63;;;13.50;;
2173;SDS011;1093;51.424;11.764;2023-11-21T09:32:41;22.40;;;11.50;;
2173;SDS011;1093;51.424;11.764;2023-11-21T09:35:10;23.30;;;13.43;;
2173;SDS011;1093;51.424;11.764;2023-11-21T09:37:39;26.50;;;14.00;;
2173;SDS011;1093;51.424;11.764;2023-11-21T09:40:06;25.20;;;14.23;;
2173;SDS011;1093;51.424;11.764;2023-11-21T09:42:39;24.63;;;14.00;;
2173;SDS011;1093;51.424;11.764;2023-11-21T09:45:12;18.80;;;11.90;;
2173;SDS011;1093;51.424;11.764;2023-11-21T09:47:47;21.60;;;14.23;;
2173;SDS011;1093;51.424;11.764;2023-11-21T09:50:14;19.73;;;12.70;;
2173;SDS011;1093;51.424;11.764;2023-11-21T09:52:45;19.23;;;12.10;;
2173;SDS011;1093;51.424;11.764;2023-11-21T09:55:26;18.57;;;11.53;;
2173;SDS011;1093;51.424;11.764;2023-11-21T09:57:55;23.23;;;12.03;;
2173;SDS011;1093;51.424;11.764;2023-11-21T10:00:23;23.70;;;13.00;;
2173;SDS011;1093;51.424;11.764;2023-11-21T10:02:52;28.20;;;14.67;;
2173;SDS011;1093;51.424;11.764;2023-11-21T10:05:19;28.83;;;15.67;;
2173;SDS011;1093;51.424;11.764;2023-11-21T10:07:47;28.13;;;15.20;;
2173;SDS011;1093;51.424;11.764;2023-11-21T10:10:17;24.87;;;14.37;;
2173;SDS011;1093;51.424;11.764;2023-11-21T10:12:48;27.67;;;13.70;;
2173;SDS011;1093;51.424;11.764;2023-11-21T10:15:18;28.20;;;14.00;;
2173;SDS011;1093;51.424;11.764;2023-11-21T10:17:51;25.37;;;13.60;;
2173;SDS011;1093;51.424;11.764;2023-11-21T10:20:28;20.20;;;12.87;;
2173;SDS011;1093;51.424;11.764;2023-11-21T10:22:56;22.37;;;12.03;;
2173;SDS011;1093;51.424;11.764;2023-11-21T10:25:23;25.53;;;13.23;;
2173;SDS011;1093;51.424;11.764;2023-11-21T10:27:55;26.37;;;14.63;;
2173;SDS011;1093;51.424;11.764;2023-11-21T10:30:28;27.93;;;14.60;;
2173;SDS011;1093;51.424;11.764;2023-11-21T10:33:03;29.37;;;14.47;;
2173;SDS011;1093;51.424;11.764;2023-11-21T10:35:45;33.17;;;14.70;;
2173;SDS011;1093;51.424;11.764;2023-11-21T10:38:15;24.77;;;15.50;;
2173;SDS011;1093;51.424;11.764;2023-11-21T10:40:44;23.37;;;12.43;;
2173;SDS011;1093;51.424;11.764;2023-11-21T10:43:13;21.40;;;12.57;;
2173;SDS011;1093;51.424;11.764;2023-11-21T10:45:41;23.50;;;13.43;;
2173;SDS011;1093;51.424;11.764;2023-11-21T10:48:10;21.73;;;13.40;;
2173;SDS011;1093;51.424;11.764;2023-11-21T10:50:42;24.20;;;13.30;;
2173;SDS011;1093;51.424;11.764;2023-11-21T10:53:11;22.93;;;13.23;;
2173;SDS011;1093;51.424;11.764;2023-11-21T10:55:38;24.93;;;14.30;;
2173;SDS011;1093;51.424;11.764;2023-11-21T10:58:06;26.70;;;13.33;;
2173;SDS011;1093;51.424;11.764;2023-11-21T11:00:35;29.23;;;15.20;;
2173;SDS011;1093;51.424;11.764;2023-11-21T11:03:05;29.83;;;16.30;;
2173;SDS011;1093;51.424;11.764;2023-11-21T11:05:40;26.97;;;15.87;;
2173;SDS011;1093;51.424;11.764;2023-11-21T11:08:11;21.67;;;14.03;;
2173;SDS011;1093;51.424;11.764;2023-11-21T11:10:43;28.07;;;15.23;;
2173;SDS011;1093;51.424;11.764;2023-11-21T11:13:11;25.77;;;15.10;;
2173;SDS011;1093;51.424;11.764;2023-11-21T11:15:42;23.07;;;14.70;;
2173;SDS011;1093;51.424;11.764;2023-11-21T11:18:13;22.90;;;13.73;;
2173;SDS011;1093;51.424;11.764;2023-11-21T11:20:43;26.93;;;14.07;;
2173;SDS011;1093;51.424;11.764;2023-11-21T11:23:34;26.23;;;15.50;;
2173;SDS011;1093;51.424;11.764;2023-11-21T11:26:12;21.20;;;13.97;;
2173;SDS011;1093;51.424;11.764;2023-11-21T11:28:54;22.00;;;13.70;;
2173;SDS011;1093;51.424;11.764;2023-11-21T11:31:29;26.97;;;13.80;;
2173;SDS011;1093;51.424;11.764;2023-11-21T11:34:06;24.33;;;15.13;;
2173;SDS011;1093;51.424;11.764;2023-11-21T11:36:47;22.17;;;15.20;;
2173;SDS011;1093;51.424;11.764;2023-11-21T11:39:27;20.80;;;14.13;;
2173;SDS011;1093;51.424;11.764;2023-11-21T11:41:55;22.90;;;13.23;;
2173;SDS011;1093;51.424;11.764;2023-11-21T11:47:16;21.07;;;11.87;;
2173;SDS011;1093;51.424;11.764;2023-11-21T11:49:56;20.87;;;12.43;;
2173;SDS011;1093;51.424;11.764;2023-11-21T11:52:34;21.33;;;12.17;;
2173;SDS011;1093;51.424;11.764;2023-11-21T11:55:03;18.13;;;12.10;;
2173;SDS011;1093;51.424;11.764;2023-11-21T11:57:32;25.73;;;12.40;;
2173;SDS011;1093;51.424;11.764;2023-11-21T12:00:10;21.90;;;11.80;;
2173;SDS011;1093;51.424;11.764;2023-11-21T12:02:41;20.70;;;13.63;;
2173;SDS011;1093;51.424;11.764;2023-11-21T12:05:10;22.50;;;13.90;;
2173;SDS011;1093;51.424;11.764;2023-11-21T12:07:46;18.53;;;11.77;;
2173;SDS011;1093;51.424;11.764;2023-11-21T12:10:15;27.00;;;14.50;;
2173;SDS011;1093;51.424;11.764;2023-11-21T12:12:47;23.60;;;13.30;;
2173;SDS011;1093;51.424;11.764;2023-11-21T12:15:17;23.10;;;14.17;;
2173;SDS011;1093;51.424;11.764;2023-11-21T12:17:45;28.03;;;14.80;;
2173;SDS011;1093;51.424;11.764;2023-11-21T12:20:12;25.83;;;14.70;;
2173;SDS011;1093;51.424;11.764;2023-11-21T12:22:55;29.47;;;16.57;;
2173;SDS011;1093;51.424;11.764;2023-11-21T12:25:25;26.90;;;14.53;;
2173;SDS011;1093;51.424;11.764;2023-11-21T12:27:54;26.00;;;15.07;;
2173;SDS011;1093;51.424;11.764;2023-11-21T12:30:22;28.10;;;13.97;;
2173;SDS011;1093;51.424;11.764;2023-11-21T12:32:53;23.03;;;14.70;;
2173;SDS011;1093;51.424;11.764;2023-11-21T12:35:23;29.20;;;15.60;;
2173;SDS011;1093;51.424;11.764;2023-11-21T12:37:52;27.90;;;14.63;;
2173;SDS011;1093;51.424;11.764;2023-11-21T12:40:21;22.73;;;14.10;;
2173;SDS011;1093;51.424;11.764;2023-11-21T12:42:48;25.50;;;14.30;;
2173;SDS011;1093;51.424;11.764;2023-11-21T12:45:18;27.70;;;13.60;;
2173;SDS011;1093;51.424;11.764;2023-11-21T12:47:47;25.20;;;13.80;;
2173;SDS011;1093;51.424;11.764;2023-11-21T12:50:15;25.90;;;15.17;;
2173;SDS011;1093;51.424;11.764;2023-11-21T12:52:48;26.17;;;13.87;;
2173;SDS011;1093;51.424;11.764;2023-11-21T12:55:16;22.87;;;13.20;;
2173;SDS011;1093;51.424;11.764;2023-11-21T12:57:50;22.40;;;10.70;;
2173;SDS011;1093;51.424;11.764;2023-11-21T13:00:19;16.23;;;11.30;;
2173;SDS011;1093;51.424;11.764;2023-11-21T13:02:55;16.57;;;10.53;;
2173;SDS011;1093;51.424;11.764;2023-11-21T13:05:24;21.07;;;11.87;;
2173;SDS011;1093;51.424;11.764;2023-11-21T13:07:53;15.40;;;10.50;;
2173;SDS011;1093;51.424;11.764;2023-11-21T13:10:22;20.60;;;12.23;;
2173;SDS011;1093;51.424;11.764;2023-11-21T13:12:58;19.97;;;12.10;;
2173;SDS011;1093;51.424;11.764;2023-11-21T13:15:26;26.70;;;13.10;;
2173;SDS011;1093;51.424;11.764;2023-11-21T13:17:56;19.53;;;11.37;;
2173;SDS011;1093;51.424;11.764;2023-11-21T13:20:23;17.60;;;11.70;;
2173;SDS011;1093;51.424;11.764;2023-11-21T13:22:51;22.10;;;12.43;;
2173;SDS011;1093;51.424;11.764;2023-11-21T13:25:20;21.10;;;11.67;;
2173;SDS011;1093;51.424;11.764;2023-11-21T13:27:49;21.87;;;12.33;;
2173;SDS011;1093;51.424;11.764;2023-11-21T13:30:18;24.60;;;13.47;;
2173;SDS011;1093;51.424;11.764;2023-11-21T13:32:50;22.00;;;11.80;;
2173;SDS011;1093;51.424;11.764;2023-11-21T13:35:17;21.17;;;11.70;;
2173;SDS011;1093;51.424;11.764;2023-11-21T13:37:49;18.07;;;10.07;;
2173;SDS011;1093;51.424;11.764;2023-11-21T13:40:21;18.70;;;10.23;;
2173;SDS011;1093;51.424;11.764;2023-11-21T13:42:51;19.50;;;11.27;;
2173;SDS011;1093;51.424;11.764;2023-11-21T13:45:21;17.90;;;12.67;;
2173;SDS011;1093;51.424;11.764;2023-11-21T13:47:50;15.77;;;11.13;;
2173;SDS011;1093;51.424;11.764;2023-11-21T13:50:22;18.07;;;11.67;;
2173;SDS011;1093;51.424;11.764;2023-11-21T13:52:57;16.50;;;10.87;;
2173;SDS011;1093;51.424;11.764;2023-11-21T13:55:28;19.87;;;11.77;;
2173;SDS011;1093;51.424;11.764;2023-11-21T13:57:58;18.40;;;11.00;;
2173;SDS011;1093;51.424;11.764;2023-11-21T14:00:35;15.67;;;11.60;;
2173;SDS011;1093;51.424;11.764;2023-11-21T14:03:07;23.70;;;12.50;;
2173;SDS011;1093;51.424;11.764;2023-11-21T14:05:42;17.90;;;12.10;;
2173;SDS011;1093;51.424;11.764;2023-11-21T14:08:11;23.53;;;12.50;;
2173;SDS011;1093;51.424;11.764;2023-11-21T14:10:41;22.03;;;12.40;;
2173;SDS011;1093;51.424;11.764;2023-11-21T14:13:09;23.93;;;12.77;;
2173;SDS011;1093;51.424;11.764;2023-11-21T14:15:40;19.90;;;13.90;;
2173;SDS011;1093;51.424;11.764;2023-11-21T14:18:11;24.30;;;12.97;;
2173;SDS011;1093;51.424;11.764;2023-11-21T14:20:42;27.60;;;12.60;;
2173;SDS011;1093;51.424;11.764;2023-11-21T14:23:10;25.40;;;12.83;;
2173;SDS011;1093;51.424;11.764;2023-11-21T14:25:38;20.67;;;12.50;;
2173;SDS011;1093;51.424;11.764;2023-11-21T14:28:07;24.03;;;11.90;;
2173;SDS011;1093;51.424;11.764;2023-11-21T14:30:36;25.23;;;13.27;;
2173;SDS011;1093;51.424;11.764;2023-11-21T14:33:07;21.00;;;12.90;;
2173;SDS011;1093;51.424;11.764;2023-11-21T14:35:36;26.50;;;12.53;;
2173;SDS011;1093;51.424;11.764;2023-11-21T14:38:04;16.57;;;10.43;;
2173;SDS011;1093;51.424;11.764;2023-11-21T14:40:34;16.43;;;11.10;;
2173;SDS011;1093;51.424;11.764;2023-11-21T14:43:02;15.67;;;9.70;;
2173;SDS011;1093;51.424;11.764;2023-11-21T14:45:31;20.13;;;10.10;;
2173;SDS011;1093;51.424;11.764;2023-11-21T14:47:58;16.13;;;11.23;;
2173;SDS011;1093;51.424;11.764;2023-11-21T14:50:33;21.10;;;11.47;;
2173;SDS011;1093;51.424;11.764;2023-11-21T14:53:34;18.40;;;11.10;;
2173;SDS011;1093;51.424;11.764;2023-11-21T14:56:08;17.77;;;11.10;;
2173;SDS011;1093;51.424;11.764;2023-11-21T14:58:38;20.13;;;12.10;;
2173;SDS011;1093;51.424;11.764;2023-11-21T15:01:05;19.97;;;11.23;;
2173;SDS011;1093;51.424;11.764;2023-11-21T15:03:33;14.73;;;11.10;;